MUC | München Airways

 METAR UND TAF INFORMATION

METAR FOR EKVG
ADDS - METARS form results

(0930 UTC 21 May 2019)
Data provider http://aviationweather.gov/metar/data/
 
METAR text: EKVG 210920Z AUTO 32006KT 250V360 9999NDV BKN076/// 09/08 Q1017 RMK SCT006/// SCT012/// BKN076/// WIND SKEID 31005KT 270V340
Conditions at: EKVG (SORVAAG/VAGAR , DK) observed 0920 UTC 21 May 2019
Temperature: 9.0°C (48°F)
Dewpoint: 8.0°C (46°F) [RH = 93%]
Pressure (altimeter): 30.03 inches Hg (1017.0 mb)
Winds: from the NW (320 degrees) at 7 MPH (6 knots; 3.1 m/s)
Visibility: missing
Ceiling: 7600 feet AGL
Clouds: broken clouds at 7600 feet AGL
Weather: no significant weather observed at this time

METAR text: EKVG 210850Z AUTO 34009KT 9999NDV SCT011/// BKN075/// 09/08 Q1017 RMK BKN006/// WIND SKEID 30003KT
Conditions at: EKVG (SORVAAG/VAGAR , DK) observed 0850 UTC 21 May 2019
Temperature: 9.0°C (48°F)
Dewpoint: 8.0°C (46°F) [RH = 93%]
Pressure (altimeter): 30.03 inches Hg (1017.0 mb)
Winds: from the NNW (340 degrees) at 10 MPH (9 knots; 4.6 m/s)
Visibility: missing
Ceiling: 7500 feet AGL
Clouds: scattered clouds at 1100 feet AGL
broken clouds at 7500 feet AGL
Weather: no significant weather observed at this time

Forecast for: EKVG (SORVAAG/VAGAR , DK)
Text: TAF EKVG 210807Z 2109/2118 35006KT 9999 SCT005 BKN020
Forecast period: 0900 to 1800 UTC 21 May 2019
Forecast type: FROM: standard forecast or significant change
Winds: from the N (350 degrees) at 7 MPH (6 knots; 3.1 m/s)
Visibility: 6 or more miles 10+ km)
Ceiling: 2000 feet AGL
Clouds: scattered clouds at 500 feet AGL
broken clouds at 2000 feet AGL
Weather: no significant weather forecast for this period
Text: TEMPO 2109/2118 4000 BR BKN004
Forecast period: 0900 to 1800 UTC 21 May 2019
Forecast type: TEMPORARY: The following changes expected for less than half the time period
Visibility: 2.49 miles (4.01 km)
Ceiling: 400 feet AGL
Clouds: broken clouds at 400 feet AGL
Weather: BR  (mist)

 FLUGHAFENKARTE

 RUNWAY INFORMATION
Runway 13 Runway length 5902 ft Runway width 98 ft
Runway elevation 268 ft Runway displaced threshold 0 ft Runway heading 118
Runway 31 Runway length 5902 ft Runway width 98 ft
Runway elevation 252 ft Runway displaced threshold 0 ft Runway heading 298

 AIRPORT FREQUENCIES
Type AFIS Name AFIS Frequency 124.85 MHZ

 AIRPORT NEAR NAVIGATION AIDS
Type NDB Name Myggenes Frequency 337 KHZ
Type NDB Name Nolso Frequency 404 KHZ
Type NDB Name Vagar Frequency 348 KHZ